Aérodrome :
LOGIN :

S'inscrire | Disclaimer

   EN    FR    IT 

 










Légende :    VFR   VFR Marginal   IFR   IFR Intensif   IFR Très Intensif
Visi : 
Plafond : 
>= 8 km
>= 3000ft
5 à 8 km
1000 à 3000 ft
1500m à 5 km
500 à 1000 ft
800 à 1500m
200 à 500 ft
< 800m
< 200 ft
Symboles :   Orages  Brouillard  Fortes neiges  Fortes précipitations  Vent > 20 kt
SIGMETs :   Divers  Orages  Givrage  Turbulence  Onde Orograph.  Cendres Volcan.






- Altitude de l'aérodrome : 16 ft
- Code IATA : SDR


LEXJ - Santander Cantabria

DERNIER METAR :
  • 272130Z 26007KT 230V290 8000 -DZ OVC073 14/11 Q1023

METARs EXPIRÉS :
  • 272100Z 27008KT 240V300 9000 FEW020 OVC072 14/12 Q1023 REDZ
  • 272030Z 26009KT 230V290 7000 -DZ BKN021 BKN077 14/12 Q1022
  • 272000Z 24006KT 7000 -DZ BKN024 14/12 Q1022
  • 271930Z 26008KT 240V300 7000 -DZ SCT019 OVC029 14/12 Q1022
  • 271900Z 26007KT 230V290 7000 -DZ OVC019 14/12 Q1022

TAF TAF LEXJ
Valide du 27 à 21h jusqu'au 28 à 21h UTC


272000Z 2721/2821 22005KT 9999 SCT020 BKN040 TX19/2814Z TN10/2806Z
PROB40
TEMPO 2721/2723 RADZ
TEMPO 2811/2817 06010KT



MET'MAP, la Météo Aéronautique d'un coup d'oeil ! - Copyright ORBIFLY Décembre 2007 - Disclaimer

ORBIFLY MET'MAP TEAM :

Programmation & Développement : Alexandra Zaïnal
Sur une idée originale de : Baudouin d'Aumeries
Assistance à la programmation : Marc-Olivier Méhu
Soutien technique & logistique : Manuel Goepfert

Contact : metmap@orbifly.com




SOURCES & CREDITS :

   NOAA